sensor_id;sensor_type;location;lat;lon;timestamp;temperature;humidity
32865;DHT22;19219;44.500;11.188;2023-08-12T00:01:40;20.50;99.90
32865;DHT22;19219;44.500;11.188;2023-08-12T00:04:06;20.50;99.90
32865;DHT22;19219;44.500;11.188;2023-08-12T00:06:32;20.50;99.90
32865;DHT22;19219;44.500;11.188;2023-08-12T00:08:57;20.50;99.90
32865;DHT22;19219;44.500;11.188;2023-08-12T00:11:23;20.50;99.90
32865;DHT22;19219;44.500;11.188;2023-08-12T00:13:48;20.50;99.90
32865;DHT22;19219;44.500;11.188;2023-08-12T00:16:14;20.50;99.90
32865;DHT22;19219;44.500;11.188;2023-08-12T00:18:40;20.50;99.90
32865;DHT22;19219;44.500;11.188;2023-08-12T00:21:09;20.50;99.90
32865;DHT22;19219;44.500;11.188;2023-08-12T00:23:39;20.50;99.90
32865;DHT22;19219;44.500;11.188;2023-08-12T00:26:06;20.50;99.90
32865;DHT22;19219;44.500;11.188;2023-08-12T00:28:32;20.50;99.90
32865;DHT22;19219;44.500;11.188;2023-08-12T00:30:58;20.40;99.90
32865;DHT22;19219;44.500;11.188;2023-08-12T00:33:24;20.30;99.90
32865;DHT22;19219;44.500;11.188;2023-08-12T00:35:49;20.30;99.90
32865;DHT22;19219;44.500;11.188;2023-08-12T00:38:15;20.30;99.90
32865;DHT22;19219;44.500;11.188;2023-08-12T00:40:41;20.30;99.90
32865;DHT22;19219;44.500;11.188;2023-08-12T00:43:07;20.30;99.90
32865;DHT22;19219;44.500;11.188;2023-08-12T00:45:34;20.30;99.90
32865;DHT22;19219;44.500;11.188;2023-08-12T00:48:01;20.40;99.90
32865;DHT22;19219;44.500;11.188;2023-08-12T00:50:26;20.30;99.90
32865;DHT22;19219;44.500;11.188;2023-08-12T00:52:52;20.20;99.90
32865;DHT22;19219;44.500;11.188;2023-08-12T00:55:18;20.20;99.90
32865;DHT22;19219;44.500;11.188;2023-08-12T00:57:44;20.10;99.90
32865;DHT22;19219;44.500;11.188;2023-08-12T01:00:10;19.90;99.90
32865;DHT22;19219;44.500;11.188;2023-08-12T01:02:36;19.90;99.90
32865;DHT22;19219;44.500;11.188;2023-08-12T01:05:02;19.80;99.90
32865;DHT22;19219;44.500;11.188;2023-08-12T01:07:28;19.70;99.90
32865;DHT22;19219;44.500;11.188;2023-08-12T01:09:53;19.70;99.90
32865;DHT22;19219;44.500;11.188;2023-08-12T01:17:20;19.70;99.90
32865;DHT22;19219;44.500;11.188;2023-08-12T01:19:47;19.80;99.90
32865;DHT22;19219;44.500;11.188;2023-08-12T01:22:14;19.70;99.90
32865;DHT22;19219;44.500;11.188;2023-08-12T01:24:44;19.60;99.90
32865;DHT22;19219;44.500;11.188;2023-08-12T01:27:12;19.60;99.90
32865;DHT22;19219;44.500;11.188;2023-08-12T01:29:41;19.50;99.90
32865;DHT22;19219;44.500;11.188;2023-08-12T01:34:53;19.60;99.90
32865;DHT22;19219;44.500;11.188;2023-08-12T01:37:24;19.50;99.90
32865;DHT22;19219;44.500;11.188;2023-08-12T01:39:54;19.60;99.90
32865;DHT22;19219;44.500;11.188;2023-08-12T01:42:20;19.60;99.90
32865;DHT22;19219;44.500;11.188;2023-08-12T01:44:47;19.60;99.90
32865;DHT22;19219;44.500;11.188;2023-08-12T01:47:13;19.50;99.90
32865;DHT22;19219;44.500;11.188;2023-08-12T01:49:39;19.50;99.90
32865;DHT22;19219;44.500;11.188;2023-08-12T01:52:04;19.50;99.90
32865;DHT22;19219;44.500;11.188;2023-08-12T01:54:30;19.50;99.90
32865;DHT22;19219;44.500;11.188;2023-08-12T01:57:03;19.50;99.90
32865;DHT22;19219;44.500;11.188;2023-08-12T01:59:31;19.40;99.90
32865;DHT22;19219;44.500;11.188;2023-08-12T02:01:57;19.40;99.90
32865;DHT22;19219;44.500;11.188;2023-08-12T02:04:23;19.40;99.90
32865;DHT22;19219;44.500;11.188;2023-08-12T02:06:48;19.60;99.90
32865;DHT22;19219;44.500;11.188;2023-08-12T02:09:15;19.70;99.90
32865;DHT22;19219;44.500;11.188;2023-08-12T02:11:41;19.70;99.90
32865;DHT22;19219;44.500;11.188;2023-08-12T02:14:06;19.80;99.90
32865;DHT22;19219;44.500;11.188;2023-08-12T02:16:32;19.70;99.90
32865;DHT22;19219;44.500;11.188;2023-08-12T02:18:58;19.70;99.90
32865;DHT22;19219;44.500;11.188;2023-08-12T02:21:23;19.70;99.90
32865;DHT22;19219;44.500;11.188;2023-08-12T02:23:49;19.60;99.90
32865;DHT22;19219;44.500;11.188;2023-08-12T02:26:15;19.60;99.90
32865;DHT22;19219;44.500;11.188;2023-08-12T02:28:41;19.60;99.90
32865;DHT22;19219;44.500;11.188;2023-08-12T02:31:06;19.50;99.90
32865;DHT22;19219;44.500;11.188;2023-08-12T02:33:32;19.40;99.90
32865;DHT22;19219;44.500;11.188;2023-08-12T02:35:58;19.30;99.90
32865;DHT22;19219;44.500;11.188;2023-08-12T02:38:23;19.30;99.90
32865;DHT22;19219;44.500;11.188;2023-08-12T02:40:50;19.40;99.90
32865;DHT22;19219;44.500;11.188;2023-08-12T02:43:16;19.30;99.90
32865;DHT22;19219;44.500;11.188;2023-08-12T02:45:42;19.30;99.90
32865;DHT22;19219;44.500;11.188;2023-08-12T02:48:10;19.20;99.90
32865;DHT22;19219;44.500;11.188;2023-08-12T02:50:35;19.20;99.90
32865;DHT22;19219;44.500;11.188;2023-08-12T02:53:01;19.20;99.90
32865;DHT22;19219;44.500;11.188;2023-08-12T02:55:28;19.20;99.90
32865;DHT22;19219;44.500;11.188;2023-08-12T02:57:54;19.20;99.90
32865;DHT22;19219;44.500;11.188;2023-08-12T03:00:20;19.20;99.90
32865;DHT22;19219;44.500;11.188;2023-08-12T03:02:45;19.20;99.90
32865;DHT22;19219;44.500;11.188;2023-08-12T03:05:11;19.30;99.90
32865;DHT22;19219;44.500;11.188;2023-08-12T03:07:37;19.20;99.90
32865;DHT22;19219;44.500;11.188;2023-08-12T03:10:03;19.10;99.90
32865;DHT22;19219;44.500;11.188;2023-08-12T03:12:28;19.00;99.90
32865;DHT22;19219;44.500;11.188;2023-08-12T03:14:54;19.00;99.90
32865;DHT22;19219;44.500;11.188;2023-08-12T03:17:20;18.90;99.90
32865;DHT22;19219;44.500;11.188;2023-08-12T03:19:45;18.90;99.90
32865;DHT22;19219;44.500;11.188;2023-08-12T03:22:11;18.90;99.90
32865;DHT22;19219;44.500;11.188;2023-08-12T03:24:37;18.80;99.90
32865;DHT22;19219;44.500;11.188;2023-08-12T03:27:02;18.80;99.90
32865;DHT22;19219;44.500;11.188;2023-08-12T03:29:28;18.90;99.90
32865;DHT22;19219;44.500;11.188;2023-08-12T03:31:54;18.90;99.90
32865;DHT22;19219;44.500;11.188;2023-08-12T03:34:19;18.90;99.90
32865;DHT22;19219;44.500;11.188;2023-08-12T03:36:45;18.80;99.90
32865;DHT22;19219;44.500;11.188;2023-08-12T03:39:14;18.80;99.90
32865;DHT22;19219;44.500;11.188;2023-08-12T03:41:39;18.90;99.90
32865;DHT22;19219;44.500;11.188;2023-08-12T03:44:05;18.90;99.90
32865;DHT22;19219;44.500;11.188;2023-08-12T03:46:31;19.00;99.90
32865;DHT22;19219;44.500;11.188;2023-08-12T03:48:57;19.00;99.90
32865;DHT22;19219;44.500;11.188;2023-08-12T03:51:22;19.00;99.90
32865;DHT22;19219;44.500;11.188;2023-08-12T03:53:48;18.90;99.90
32865;DHT22;19219;44.500;11.188;2023-08-12T03:56:13;18.90;99.90
32865;DHT22;19219;44.500;11.188;2023-08-12T03:58:42;18.90;99.90
32865;DHT22;19219;44.500;11.188;2023-08-12T04:01:08;18.80;99.90
32865;DHT22;19219;44.500;11.188;2023-08-12T04:03:34;18.70;99.90
32865;DHT22;19219;44.500;11.188;2023-08-12T04:05:59;18.70;99.90
32865;DHT22;19219;44.500;11.188;2023-08-12T04:08:25;18.80;99.90
32865;DHT22;19219;44.500;11.188;2023-08-12T04:10:51;18.80;99.90
32865;DHT22;19219;44.500;11.188;2023-08-12T04:13:17;18.80;99.90
32865;DHT22;19219;44.500;11.188;2023-08-12T04:15:48;18.80;99.90
32865;DHT22;19219;44.500;11.188;2023-08-12T04:18:14;18.90;99.90
32865;DHT22;19219;44.500;11.188;2023-08-12T04:20:40;18.80;99.90
32865;DHT22;19219;44.500;11.188;2023-08-12T04:23:06;18.80;99.90
32865;DHT22;19219;44.500;11.188;2023-08-12T04:25:31;18.80;99.90
32865;DHT22;19219;44.500;11.188;2023-08-12T04:27:57;18.80;99.90
32865;DHT22;19219;44.500;11.188;2023-08-12T04:30:23;18.70;99.90
32865;DHT22;19219;44.500;11.188;2023-08-12T04:32:49;18.70;99.90
32865;DHT22;19219;44.500;11.188;2023-08-12T04:35:15;18.70;99.90
32865;DHT22;19219;44.500;11.188;2023-08-12T04:37:40;18.70;99.90
32865;DHT22;19219;44.500;11.188;2023-08-12T04:40:07;18.70;99.90
32865;DHT22;19219;44.500;11.188;2023-08-12T04:42:33;18.70;99.90
32865;DHT22;19219;44.500;11.188;2023-08-12T04:44:59;18.80;99.90
32865;DHT22;19219;44.500;11.188;2023-08-12T04:47:24;18.80;99.90
32865;DHT22;19219;44.500;11.188;2023-08-12T04:49:50;18.80;99.90
32865;DHT22;19219;44.500;11.188;2023-08-12T04:52:15;18.80;99.90
32865;DHT22;19219;44.500;11.188;2023-08-12T04:54:41;18.90;99.90
32865;DHT22;19219;44.500;11.188;2023-08-12T04:57:07;18.90;99.90
32865;DHT22;19219;44.500;11.188;2023-08-12T04:59:32;18.90;99.90
32865;DHT22;19219;44.500;11.188;2023-08-12T05:01:58;18.90;99.90
32865;DHT22;19219;44.500;11.188;2023-08-12T05:04:24;18.90;99.90
32865;DHT22;19219;44.500;11.188;2023-08-12T05:06:49;19.10;99.90
32865;DHT22;19219;44.500;11.188;2023-08-12T05:09:15;19.20;99.90
32865;DHT22;19219;44.500;11.188;2023-08-12T05:11:41;19.30;99.90
32865;DHT22;19219;44.500;11.188;2023-08-12T05:14:06;19.40;99.90
32865;DHT22;19219;44.500;11.188;2023-08-12T05:16:33;19.50;99.90
32865;DHT22;19219;44.500;11.188;2023-08-12T05:18:59;19.60;99.90
32865;DHT22;19219;44.500;11.188;2023-08-12T05:21:25;19.50;99.90
32865;DHT22;19219;44.500;11.188;2023-08-12T05:23:50;19.60;99.90
32865;DHT22;19219;44.500;11.188;2023-08-12T05:26:16;19.70;99.90
32865;DHT22;19219;44.500;11.188;2023-08-12T05:28:41;19.80;99.90
32865;DHT22;19219;44.500;11.188;2023-08-12T05:31:08;19.90;99.90
32865;DHT22;19219;44.500;11.188;2023-08-12T05:33:33;20.00;99.90
32865;DHT22;19219;44.500;11.188;2023-08-12T05:35:59;20.20;99.90
32865;DHT22;19219;44.500;11.188;2023-08-12T05:38:25;20.30;99.90
32865;DHT22;19219;44.500;11.188;2023-08-12T05:40:50;20.50;99.90
32865;DHT22;19219;44.500;11.188;2023-08-12T05:43:16;20.60;99.90
32865;DHT22;19219;44.500;11.188;2023-08-12T05:45:42;20.70;99.90
32865;DHT22;19219;44.500;11.188;2023-08-12T05:48:08;20.70;99.90
32865;DHT22;19219;44.500;11.188;2023-08-12T05:50:34;20.80;99.90
32865;DHT22;19219;44.500;11.188;2023-08-12T05:52:59;20.90;99.90
32865;DHT22;19219;44.500;11.188;2023-08-12T05:55:25;21.10;99.90
32865;DHT22;19219;44.500;11.188;2023-08-12T05:57:50;21.20;99.90
32865;DHT22;19219;44.500;11.188;2023-08-12T06:00:16;21.20;99.90
32865;DHT22;19219;44.500;11.188;2023-08-12T06:02:42;21.20;99.90
32865;DHT22;19219;44.500;11.188;2023-08-12T06:05:08;21.30;99.90
32865;DHT22;19219;44.500;11.188;2023-08-12T06:07:34;21.30;99.90
32865;DHT22;19219;44.500;11.188;2023-08-12T06:10:00;21.40;99.90
32865;DHT22;19219;44.500;11.188;2023-08-12T06:12:26;21.40;99.90
32865;DHT22;19219;44.500;11.188;2023-08-12T06:14:52;21.50;99.90
32865;DHT22;19219;44.500;11.188;2023-08-12T06:17:17;21.50;99.90
32865;DHT22;19219;44.500;11.188;2023-08-12T06:19:43;21.50;99.90
32865;DHT22;19219;44.500;11.188;2023-08-12T06:22:09;21.60;99.90
32865;DHT22;19219;44.500;11.188;2023-08-12T06:24:35;21.70;99.90
32865;DHT22;19219;44.500;11.188;2023-08-12T06:27:01;21.90;99.90
32865;DHT22;19219;44.500;11.188;2023-08-12T06:29:26;22.10;99.90
32865;DHT22;19219;44.500;11.188;2023-08-12T06:31:53;22.50;99.90
32865;DHT22;19219;44.500;11.188;2023-08-12T06:34:19;22.90;99.90
32865;DHT22;19219;44.500;11.188;2023-08-12T06:36:44;23.50;99.90
32865;DHT22;19219;44.500;11.188;2023-08-12T06:39:10;24.20;99.90
32865;DHT22;19219;44.500;11.188;2023-08-12T06:41:36;24.80;99.90
32865;DHT22;19219;44.500;11.188;2023-08-12T06:44:02;25.30;99.90
32865;DHT22;19219;44.500;11.188;2023-08-12T06:46:29;25.80;99.90
32865;DHT22;19219;44.500;11.188;2023-08-12T06:48:58;26.00;99.90
32865;DHT22;19219;44.500;11.188;2023-08-12T06:51:23;26.30;99.90
32865;DHT22;19219;44.500;11.188;2023-08-12T06:53:49;26.50;99.90
32865;DHT22;19219;44.500;11.188;2023-08-12T06:56:15;27.00;99.90
32865;DHT22;19219;44.500;11.188;2023-08-12T06:58:40;27.00;99.90
32865;DHT22;19219;44.500;11.188;2023-08-12T07:01:06;27.30;99.90
32865;DHT22;19219;44.500;11.188;2023-08-12T07:03:32;27.60;99.90
32865;DHT22;19219;44.500;11.188;2023-08-12T07:05:58;27.80;99.90
32865;DHT22;19219;44.500;11.188;2023-08-12T07:08:24;27.50;99.90
32865;DHT22;19219;44.500;11.188;2023-08-12T07:10:49;27.90;99.90
32865;DHT22;19219;44.500;11.188;2023-08-12T07:13:15;28.00;99.90
32865;DHT22;19219;44.500;11.188;2023-08-12T07:15:41;28.30;99.90
32865;DHT22;19219;44.500;11.188;2023-08-12T07:18:06;28.70;99.90
32865;DHT22;19219;44.500;11.188;2023-08-12T07:20:32;29.00;99.90
32865;DHT22;19219;44.500;11.188;2023-08-12T07:22:58;29.20;99.90
32865;DHT22;19219;44.500;11.188;2023-08-12T07:25:24;29.40;99.90
32865;DHT22;19219;44.500;11.188;2023-08-12T07:27:49;29.60;99.90
32865;DHT22;19219;44.500;11.188;2023-08-12T07:30:15;29.70;99.90
32865;DHT22;19219;44.500;11.188;2023-08-12T07:32:41;30.00;99.90
32865;DHT22;19219;44.500;11.188;2023-08-12T07:35:07;30.30;99.90
32865;DHT22;19219;44.500;11.188;2023-08-12T07:37:33;30.20;99.90
32865;DHT22;19219;44.500;11.188;2023-08-12T07:39:58;30.20;99.90
32865;DHT22;19219;44.500;11.188;2023-08-12T07:42:24;30.20;99.90
32865;DHT22;19219;44.500;11.188;2023-08-12T07:44:50;30.30;99.90
32865;DHT22;19219;44.500;11.188;2023-08-12T07:47:15;30.60;99.90
32865;DHT22;19219;44.500;11.188;2023-08-12T07:49:42;30.70;99.90
32865;DHT22;19219;44.500;11.188;2023-08-12T07:52:07;31.00;99.90
32865;DHT22;19219;44.500;11.188;2023-08-12T07:54:33;31.20;99.90
32865;DHT22;19219;44.500;11.188;2023-08-12T07:56:59;31.20;99.90
32865;DHT22;19219;44.500;11.188;2023-08-12T07:59:24;31.00;99.90
32865;DHT22;19219;44.500;11.188;2023-08-12T08:01:51;30.90;99.90
32865;DHT22;19219;44.500;11.188;2023-08-12T08:04:17;30.70;99.90
32865;DHT22;19219;44.500;11.188;2023-08-12T08:06:43;30.60;99.90
32865;DHT22;19219;44.500;11.188;2023-08-12T08:09:09;30.10;99.90
32865;DHT22;19219;44.500;11.188;2023-08-12T08:11:35;30.20;99.90
32865;DHT22;19219;44.500;11.188;2023-08-12T08:14:00;30.40;99.90
32865;DHT22;19219;44.500;11.188;2023-08-12T08:16:26;30.90;99.90
32865;DHT22;19219;44.500;11.188;2023-08-12T08:18:52;31.10;99.90
32865;DHT22;19219;44.500;11.188;2023-08-12T08:21:18;31.30;99.90
32865;DHT22;19219;44.500;11.188;2023-08-12T08:23:44;30.80;99.90
32865;DHT22;19219;44.500;11.188;2023-08-12T08:26:09;30.90;99.90
32865;DHT22;19219;44.500;11.188;2023-08-12T08:28:35;31.20;99.90
32865;DHT22;19219;44.500;11.188;2023-08-12T08:31:01;31.60;99.90
32865;DHT22;19219;44.500;11.188;2023-08-12T08:33:27;31.70;99.90
32865;DHT22;19219;44.500;11.188;2023-08-12T08:35:53;32.00;99.90
32865;DHT22;19219;44.500;11.188;2023-08-12T08:38:19;32.10;99.90
32865;DHT22;19219;44.500;11.188;2023-08-12T08:40:45;31.80;99.90
32865;DHT22;19219;44.500;11.188;2023-08-12T08:43:14;31.90;99.90
32865;DHT22;19219;44.500;11.188;2023-08-12T08:45:41;31.80;99.90
32865;DHT22;19219;44.500;11.188;2023-08-12T08:48:10;31.90;99.90
32865;DHT22;19219;44.500;11.188;2023-08-12T08:50:36;32.20;99.90
32865;DHT22;19219;44.500;11.188;2023-08-12T08:53:04;32.30;99.90
32865;DHT22;19219;44.500;11.188;2023-08-12T08:55:32;32.00;99.90
32865;DHT22;19219;44.500;11.188;2023-08-12T08:57:58;32.10;99.90
32865;DHT22;19219;44.500;11.188;2023-08-12T09:00:25;32.30;99.90
32865;DHT22;19219;44.500;11.188;2023-08-12T09:02:51;32.60;99.90
32865;DHT22;19219;44.500;11.188;2023-08-12T09:05:17;32.40;99.90
32865;DHT22;19219;44.500;11.188;2023-08-12T09:07:46;32.60;99.90
32865;DHT22;19219;44.500;11.188;2023-08-12T09:10:12;32.20;99.90
32865;DHT22;19219;44.500;11.188;2023-08-12T09:12:39;32.20;99.90
32865;DHT22;19219;44.500;11.188;2023-08-12T09:15:06;32.30;99.90
32865;DHT22;19219;44.500;11.188;2023-08-12T09:17:32;32.60;99.90
32865;DHT22;19219;44.500;11.188;2023-08-12T09:19:59;32.70;99.90
32865;DHT22;19219;44.500;11.188;2023-08-12T09:22:25;32.70;99.90
32865;DHT22;19219;44.500;11.188;2023-08-12T09:24:57;32.90;99.80
32865;DHT22;19219;44.500;11.188;2023-08-12T09:27:24;32.60;99.10
32865;DHT22;19219;44.500;11.188;2023-08-12T09:29:51;32.30;99.70
32865;DHT22;19219;44.500;11.188;2023-08-12T09:32:20;32.20;98.90
32865;DHT22;19219;44.500;11.188;2023-08-12T09:34:56;32.10;99.20
32865;DHT22;19219;44.500;11.188;2023-08-12T09:37:23;32.30;99.80
32865;DHT22;19219;44.500;11.188;2023-08-12T09:39:51;32.30;99.90
32865;DHT22;19219;44.500;11.188;2023-08-12T09:42:18;32.40;99.90
32865;DHT22;19219;44.500;11.188;2023-08-12T09:44:44;32.60;99.90
32865;DHT22;19219;44.500;11.188;2023-08-12T09:47:10;32.70;99.10
32865;DHT22;19219;44.500;11.188;2023-08-12T09:49:36;32.60;99.00
32865;DHT22;19219;44.500;11.188;2023-08-12T09:52:07;32.40;99.30
32865;DHT22;19219;44.500;11.188;2023-08-12T09:54:36;32.50;99.80
32865;DHT22;19219;44.500;11.188;2023-08-12T09:57:03;32.60;99.90
32865;DHT22;19219;44.500;11.188;2023-08-12T09:59:33;32.70;99.30
32865;DHT22;19219;44.500;11.188;2023-08-12T10:02:03;32.80;99.70
32865;DHT22;19219;44.500;11.188;2023-08-12T10:04:39;32.70;99.90
32865;DHT22;19219;44.500;11.188;2023-08-12T10:07:11;32.60;99.50
32865;DHT22;19219;44.500;11.188;2023-08-12T10:09:39;32.70;99.80
32865;DHT22;19219;44.500;11.188;2023-08-12T10:12:06;32.70;99.30
32865;DHT22;19219;44.500;11.188;2023-08-12T10:14:33;32.70;99.00
32865;DHT22;19219;44.500;11.188;2023-08-12T10:16:59;32.20;99.00
32865;DHT22;19219;44.500;11.188;2023-08-12T10:19:25;32.40;99.40
32865;DHT22;19219;44.500;11.188;2023-08-12T10:21:55;32.50;99.80
32865;DHT22;19219;44.500;11.188;2023-08-12T10:24:24;32.70;99.70
32865;DHT22;19219;44.500;11.188;2023-08-12T10:26:51;32.80;98.90
32865;DHT22;19219;44.500;11.188;2023-08-12T10:29:18;32.80;99.20
32865;DHT22;19219;44.500;11.188;2023-08-12T10:31:48;32.80;99.40
32865;DHT22;19219;44.500;11.188;2023-08-12T10:34:24;32.80;99.20
32865;DHT22;19219;44.500;11.188;2023-08-12T10:36:57;32.90;99.00
32865;DHT22;19219;44.500;11.188;2023-08-12T10:39:26;33.00;99.00
32865;DHT22;19219;44.500;11.188;2023-08-12T10:41:55;33.00;99.10
32865;DHT22;19219;44.500;11.188;2023-08-12T10:44:22;32.80;98.00
32865;DHT22;19219;44.500;11.188;2023-08-12T10:46:52;32.30;98.70
32865;DHT22;19219;44.500;11.188;2023-08-12T10:49:22;32.30;98.90
32865;DHT22;19219;44.500;11.188;2023-08-12T10:51:57;32.30;98.10
32865;DHT22;19219;44.500;11.188;2023-08-12T10:57:09;32.10;98.60
32865;DHT22;19219;44.500;11.188;2023-08-12T11:02:32;32.60;97.30
32865;DHT22;19219;44.500;11.188;2023-08-12T11:05:07;32.60;96.70
32865;DHT22;19219;44.500;11.188;2023-08-12T11:07:48;32.50;97.90
32865;DHT22;19219;44.500;11.188;2023-08-12T11:10:21;32.60;98.10
32865;DHT22;19219;44.500;11.188;2023-08-12T11:15:16;32.80;97.60
32865;DHT22;19219;44.500;11.188;2023-08-12T11:17:42;32.90;97.80
32865;DHT22;19219;44.500;11.188;2023-08-12T11:20:10;32.60;97.10
32865;DHT22;19219;44.500;11.188;2023-08-12T11:22:38;32.60;98.00
32865;DHT22;19219;44.500;11.188;2023-08-12T11:25:05;32.50;98.00
32865;DHT22;19219;44.500;11.188;2023-08-12T11:27:38;32.40;97.30
32865;DHT22;19219;44.500;11.188;2023-08-12T11:30:05;32.30;97.70
32865;DHT22;19219;44.500;11.188;2023-08-12T11:32:31;32.30;97.10
32865;DHT22;19219;44.500;11.188;2023-08-12T11:34:56;32.10;97.00
32865;DHT22;19219;44.500;11.188;2023-08-12T11:37:22;32.00;97.60
32865;DHT22;19219;44.500;11.188;2023-08-12T11:39:48;32.10;98.30
32865;DHT22;19219;44.500;11.188;2023-08-12T11:42:13;32.20;98.40
32865;DHT22;19219;44.500;11.188;2023-08-12T11:44:40;32.40;98.00
32865;DHT22;19219;44.500;11.188;2023-08-12T11:47:07;32.50;97.70
32865;DHT22;19219;44.500;11.188;2023-08-12T11:49:33;32.60;96.60
32865;DHT22;19219;44.500;11.188;2023-08-12T11:51:58;32.50;95.90
32865;DHT22;19219;44.500;11.188;2023-08-12T11:54:24;32.50;95.80
32865;DHT22;19219;44.500;11.188;2023-08-12T11:56:51;32.30;96.20
32865;DHT22;19219;44.500;11.188;2023-08-12T11:59:17;32.20;96.40
32865;DHT22;19219;44.500;11.188;2023-08-12T12:01:46;31.90;96.10
32865;DHT22;19219;44.500;11.188;2023-08-12T12:04:14;32.00;96.90
32865;DHT22;19219;44.500;11.188;2023-08-12T12:06:41;32.10;96.50
32865;DHT22;19219;44.500;11.188;2023-08-12T12:09:08;32.20;96.20
32865;DHT22;19219;44.500;11.188;2023-08-12T12:11:38;32.10;95.60
32865;DHT22;19219;44.500;11.188;2023-08-12T12:14:06;32.10;95.90
32865;DHT22;19219;44.500;11.188;2023-08-12T12:16:44;32.10;95.80
32865;DHT22;19219;44.500;11.188;2023-08-12T12:19:20;32.10;96.20
32865;DHT22;19219;44.500;11.188;2023-08-12T12:21:51;32.00;96.40
32865;DHT22;19219;44.500;11.188;2023-08-12T12:24:18;32.00;96.00
32865;DHT22;19219;44.500;11.188;2023-08-12T12:26:45;31.70;95.80
32865;DHT22;19219;44.500;11.188;2023-08-12T12:29:12;31.80;96.30
32865;DHT22;19219;44.500;11.188;2023-08-12T12:31:39;31.90;96.60
32865;DHT22;19219;44.500;11.188;2023-08-12T12:34:06;32.00;96.40
32865;DHT22;19219;44.500;11.188;2023-08-12T12:36:34;32.00;96.40
32865;DHT22;19219;44.500;11.188;2023-08-12T12:39:00;31.90;95.40
32865;DHT22;19219;44.500;11.188;2023-08-12T12:41:26;31.90;95.80
32865;DHT22;19219;44.500;11.188;2023-08-12T12:43:51;32.00;95.70
32865;DHT22;19219;44.500;11.188;2023-08-12T12:46:17;32.00;94.90
32865;DHT22;19219;44.500;11.188;2023-08-12T12:48:43;32.10;95.80
32865;DHT22;19219;44.500;11.188;2023-08-12T12:51:10;32.10;95.10
32865;DHT22;19219;44.500;11.188;2023-08-12T12:53:36;32.00;94.60
32865;DHT22;19219;44.500;11.188;2023-08-12T12:56:02;31.90;95.20
32865;DHT22;19219;44.500;11.188;2023-08-12T12:58:36;32.10;95.40
32865;DHT22;19219;44.500;11.188;2023-08-12T13:01:03;32.20;95.00
32865;DHT22;19219;44.500;11.188;2023-08-12T13:03:30;32.10;94.60
32865;DHT22;19219;44.500;11.188;2023-08-12T13:05:56;32.30;95.80
32865;DHT22;19219;44.500;11.188;2023-08-12T13:08:22;32.30;94.40
32865;DHT22;19219;44.500;11.188;2023-08-12T13:10:48;32.30;94.80
32865;DHT22;19219;44.500;11.188;2023-08-12T13:13:15;32.50;95.80
32865;DHT22;19219;44.500;11.188;2023-08-12T13:15:44;32.60;95.70
32865;DHT22;19219;44.500;11.188;2023-08-12T13:18:11;32.60;94.80
32865;DHT22;19219;44.500;11.188;2023-08-12T13:20:37;32.40;94.20
32865;DHT22;19219;44.500;11.188;2023-08-12T13:23:03;32.50;94.30
32865;DHT22;19219;44.500;11.188;2023-08-12T13:25:33;32.60;96.20
32865;DHT22;19219;44.500;11.188;2023-08-12T13:28:03;32.70;94.60
32865;DHT22;19219;44.500;11.188;2023-08-12T13:30:29;32.60;94.20
32865;DHT22;19219;44.500;11.188;2023-08-12T13:32:55;32.70;94.40
32865;DHT22;19219;44.500;11.188;2023-08-12T13:35:22;32.90;94.80
32865;DHT22;19219;44.500;11.188;2023-08-12T13:37:49;32.90;94.10
32865;DHT22;19219;44.500;11.188;2023-08-12T13:40:15;33.10;93.70
32865;DHT22;19219;44.500;11.188;2023-08-12T13:42:42;33.20;93.70
32865;DHT22;19219;44.500;11.188;2023-08-12T13:45:09;33.10;93.70
32865;DHT22;19219;44.500;11.188;2023-08-12T13:47:35;33.20;93.50
32865;DHT22;19219;44.500;11.188;2023-08-12T13:50:01;33.00;93.40
32865;DHT22;19219;44.500;11.188;2023-08-12T13:52:27;33.10;93.00
32865;DHT22;19219;44.500;11.188;2023-08-12T13:54:52;33.10;92.70
32865;DHT22;19219;44.500;11.188;2023-08-12T13:57:18;33.00;92.80
32865;DHT22;19219;44.500;11.188;2023-08-12T13:59:43;32.90;93.60
32865;DHT22;19219;44.500;11.188;2023-08-12T14:02:13;33.00;94.10
32865;DHT22;19219;44.500;11.188;2023-08-12T14:04:38;32.90;93.00
32865;DHT22;19219;44.500;11.188;2023-08-12T14:07:04;32.90;92.80
32865;DHT22;19219;44.500;11.188;2023-08-12T14:09:30;33.00;93.20
32865;DHT22;19219;44.500;11.188;2023-08-12T14:11:57;33.00;93.40
32865;DHT22;19219;44.500;11.188;2023-08-12T14:14:24;32.90;92.90
32865;DHT22;19219;44.500;11.188;2023-08-12T14:16:53;33.00;92.20
32865;DHT22;19219;44.500;11.188;2023-08-12T14:19:18;33.10;92.90
32865;DHT22;19219;44.500;11.188;2023-08-12T14:21:44;32.90;93.10
32865;DHT22;19219;44.500;11.188;2023-08-12T14:24:10;32.90;92.30
32865;DHT22;19219;44.500;11.188;2023-08-12T14:26:35;33.10;92.70
32865;DHT22;19219;44.500;11.188;2023-08-12T14:29:01;33.20;92.60
32865;DHT22;19219;44.500;11.188;2023-08-12T14:31:27;33.20;91.70
32865;DHT22;19219;44.500;11.188;2023-08-12T14:33:53;33.20;91.50
32865;DHT22;19219;44.500;11.188;2023-08-12T14:36:18;33.30;91.90
32865;DHT22;19219;44.500;11.188;2023-08-12T14:38:44;33.40;91.80
32865;DHT22;19219;44.500;11.188;2023-08-12T14:41:10;33.30;91.90
32865;DHT22;19219;44.500;11.188;2023-08-12T14:43:35;33.40;91.20
32865;DHT22;19219;44.500;11.188;2023-08-12T14:46:02;33.40;90.60
32865;DHT22;19219;44.500;11.188;2023-08-12T14:48:28;33.30;90.70
32865;DHT22;19219;44.500;11.188;2023-08-12T14:50:55;33.40;90.20
32865;DHT22;19219;44.500;11.188;2023-08-12T14:53:21;33.50;90.40
32865;DHT22;19219;44.500;11.188;2023-08-12T14:55:46;33.50;91.00
32865;DHT22;19219;44.500;11.188;2023-08-12T14:58:12;33.50;91.40
32865;DHT22;19219;44.500;11.188;2023-08-12T15:00:38;33.60;90.50
32865;DHT22;19219;44.500;11.188;2023-08-12T15:03:04;33.60;90.40
32865;DHT22;19219;44.500;11.188;2023-08-12T15:05:30;33.50;90.00
32865;DHT22;19219;44.500;11.188;2023-08-12T15:07:56;33.20;90.20
32865;DHT22;19219;44.500;11.188;2023-08-12T15:10:22;33.20;90.50
32865;DHT22;19219;44.500;11.188;2023-08-12T15:12:48;33.00;91.20
32865;DHT22;19219;44.500;11.188;2023-08-12T15:15:14;33.00;91.60
32865;DHT22;19219;44.500;11.188;2023-08-12T15:17:39;32.90;90.80
32865;DHT22;19219;44.500;11.188;2023-08-12T15:20:06;32.90;90.60
32865;DHT22;19219;44.500;11.188;2023-08-12T15:22:32;32.90;91.60
32865;DHT22;19219;44.500;11.188;2023-08-12T15:24:57;33.00;93.30
32865;DHT22;19219;44.500;11.188;2023-08-12T15:27:23;33.20;94.00